sensor_id;sensor_type;location;lat;lon;timestamp;pressure;altitude;pressure_sealevel;temperature;humidity
74218;BME280;62579;47.288;18.646;2022-08-03T00:00:51;99958.56;;;19.63;57.39
74218;BME280;62579;47.288;18.646;2022-08-03T00:03:16;99956.66;;;19.89;57.03
74218;BME280;62579;47.288;18.646;2022-08-03T00:05:41;99957.00;;;20.00;57.08
74218;BME280;62579;47.288;18.646;2022-08-03T00:08:07;99962.69;;;20.02;57.29
74218;BME280;62579;47.288;18.646;2022-08-03T00:10:32;99952.59;;;19.97;56.60
74218;BME280;62579;47.288;18.646;2022-08-03T00:12:57;99965.81;;;19.99;56.42
74218;BME280;62579;47.288;18.646;2022-08-03T00:15:23;99974.81;;;19.22;58.30
74218;BME280;62579;47.288;18.646;2022-08-03T00:17:48;99959.69;;;19.68;57.39
74218;BME280;62579;47.288;18.646;2022-08-03T00:20:13;99970.53;;;19.66;57.57
74218;BME280;62579;47.288;18.646;2022-08-03T00:22:39;99973.81;;;19.72;57.40
74218;BME280;62579;47.288;18.646;2022-08-03T00:25:04;99971.47;;;19.53;57.89
74218;BME280;62579;47.288;18.646;2022-08-03T00:27:30;99965.06;;;19.28;58.75
74218;BME280;62579;47.288;18.646;2022-08-03T00:29:55;99969.63;;;19.26;58.66
74218;BME280;62579;47.288;18.646;2022-08-03T00:32:21;99972.41;;;19.33;58.92
74218;BME280;62579;47.288;18.646;2022-08-03T00:34:46;99966.50;;;19.37;58.87
74218;BME280;62579;47.288;18.646;2022-08-03T00:37:11;99970.03;;;19.45;58.84
74218;BME280;62579;47.288;18.646;2022-08-03T00:39:37;99964.28;;;19.58;58.49
74218;BME280;62579;47.288;18.646;2022-08-03T00:42:03;99971.25;;;19.74;58.17
74218;BME280;62579;47.288;18.646;2022-08-03T00:44:29;99962.16;;;19.96;57.51
74218;BME280;62579;47.288;18.646;2022-08-03T00:46:54;99962.50;;;20.00;57.79
74218;BME280;62579;47.288;18.646;2022-08-03T00:49:20;99964.50;;;20.07;57.45
74218;BME280;62579;47.288;18.646;2022-08-03T00:51:45;99959.84;;;20.17;57.31
74218;BME280;62579;47.288;18.646;2022-08-03T00:54:11;99963.34;;;20.18;56.96
74218;BME280;62579;47.288;18.646;2022-08-03T00:56:36;99966.16;;;20.10;56.92
74218;BME280;62579;47.288;18.646;2022-08-03T00:59:03;99963.75;;;20.07;57.14
74218;BME280;62579;47.288;18.646;2022-08-03T01:01:28;99952.50;;;20.12;56.87
74218;BME280;62579;47.288;18.646;2022-08-03T01:03:53;99963.34;;;20.18;57.27
74218;BME280;62579;47.288;18.646;2022-08-03T01:06:24;99964.25;;;20.20;56.80
74218;BME280;62579;47.288;18.646;2022-08-03T01:09:12;99965.72;;;20.21;56.76
74218;BME280;62579;47.288;18.646;2022-08-03T01:11:50;99966.31;;;20.12;57.20
74218;BME280;62579;47.288;18.646;2022-08-03T01:14:26;99971.25;;;20.21;57.47
74218;BME280;62579;47.288;18.646;2022-08-03T01:17:00;99967.56;;;20.26;56.90
74218;BME280;62579;47.288;18.646;2022-08-03T01:30:32;99972.44;;;20.03;57.28
74218;BME280;62579;47.288;18.646;2022-08-03T01:33:02;99970.59;;;20.06;57.46
74218;BME280;62579;47.288;18.646;2022-08-03T01:35:42;99969.53;;;19.94;57.54
74218;BME280;62579;47.288;18.646;2022-08-03T01:38:23;99968.59;;;19.99;57.70
74218;BME280;62579;47.288;18.646;2022-08-03T01:40:51;99973.94;;;19.97;57.63
74218;BME280;62579;47.288;18.646;2022-08-03T01:43:20;99974.31;;;20.01;57.72
74218;BME280;62579;47.288;18.646;2022-08-03T01:45:48;99970.22;;;20.02;57.36
74218;BME280;62579;47.288;18.646;2022-08-03T01:48:16;99967.69;;;19.96;57.49
74218;BME280;62579;47.288;18.646;2022-08-03T01:53:21;99969.34;;;19.92;58.02
74218;BME280;62579;47.288;18.646;2022-08-03T01:55:48;99965.13;;;19.91;57.86
74218;BME280;62579;47.288;18.646;2022-08-03T01:58:18;99953.94;;;19.81;58.07
74218;BME280;62579;47.288;18.646;2022-08-03T02:00:46;99959.44;;;19.81;58.20
74218;BME280;62579;47.288;18.646;2022-08-03T02:03:14;99959.69;;;19.68;58.58
74218;BME280;62579;47.288;18.646;2022-08-03T02:05:42;99958.41;;;19.61;58.73
74218;BME280;62579;47.288;18.646;2022-08-03T02:08:09;99959.34;;;19.56;58.82
74218;BME280;62579;47.288;18.646;2022-08-03T02:10:39;99959.69;;;19.53;59.17
74218;BME280;62579;47.288;18.646;2022-08-03T02:13:06;99958.41;;;19.54;59.88
74218;BME280;62579;47.288;18.646;2022-08-03T02:15:32;99960.06;;;19.57;59.41
74218;BME280;62579;47.288;18.646;2022-08-03T02:17:59;99963.56;;;19.65;59.10
74218;BME280;62579;47.288;18.646;2022-08-03T02:20:26;99957.09;;;19.70;59.80
74218;BME280;62579;47.288;18.646;2022-08-03T02:22:52;99962.03;;;19.79;59.43
74218;BME280;62579;47.288;18.646;2022-08-03T02:25:18;99958.00;;;19.72;59.50
74218;BME280;62579;47.288;18.646;2022-08-03T02:27:53;99958.75;;;19.73;59.19
74218;BME280;62579;47.288;18.646;2022-08-03T02:30:20;99956.53;;;19.64;59.61
74218;BME280;62579;47.288;18.646;2022-08-03T02:32:52;99965.06;;;19.43;60.23
74218;BME280;62579;47.288;18.646;2022-08-03T02:50:15;99973.88;;;19.42;61.72
74218;BME280;62579;47.288;18.646;2022-08-03T02:52:43;99969.28;;;19.52;62.03
74218;BME280;62579;47.288;18.646;2022-08-03T02:55:10;99969.25;;;19.59;62.00
74218;BME280;62579;47.288;18.646;2022-08-03T02:57:36;99971.66;;;19.63;62.13
74218;BME280;62579;47.288;18.646;2022-08-03T03:00:04;99969.59;;;19.63;62.03
74218;BME280;62579;47.288;18.646;2022-08-03T03:02:30;99972.75;;;19.67;62.01
74218;BME280;62579;47.288;18.646;2022-08-03T03:04:56;99980.47;;;19.61;62.01
74218;BME280;62579;47.288;18.646;2022-08-03T03:07:22;99981.25;;;19.54;62.11
74218;BME280;62579;47.288;18.646;2022-08-03T03:09:47;99990.97;;;19.55;62.06
74218;BME280;62579;47.288;18.646;2022-08-03T03:12:15;99988.63;;;19.44;62.91
74218;BME280;62579;47.288;18.646;2022-08-03T03:14:41;99984.19;;;19.49;63.16
74218;BME280;62579;47.288;18.646;2022-08-03T03:17:08;99982.88;;;19.50;63.01
74218;BME280;62579;47.288;18.646;2022-08-03T03:41:59;99991.38;;;19.44;64.66
74218;BME280;62579;47.288;18.646;2022-08-03T03:44:27;99993.59;;;19.46;64.90
74218;BME280;62579;47.288;18.646;2022-08-03T03:46:53;99996.34;;;19.38;65.41
74218;BME280;62579;47.288;18.646;2022-08-03T03:49:18;99991.91;;;19.35;65.65
74218;BME280;62579;47.288;18.646;2022-08-03T03:51:44;99992.44;;;19.34;65.82
74218;BME280;62579;47.288;18.646;2022-08-03T03:54:09;99998.91;;;19.36;65.90
74218;BME280;62579;47.288;18.646;2022-08-03T03:56:35;99999.84;;;19.39;65.85
74218;BME280;62579;47.288;18.646;2022-08-03T03:59:00;100001.88;;;19.46;65.59
74218;BME280;62579;47.288;18.646;2022-08-03T04:01:25;100001.84;;;19.53;65.70
74218;BME280;62579;47.288;18.646;2022-08-03T04:03:51;100004.06;;;19.55;65.51
74218;BME280;62579;47.288;18.646;2022-08-03T04:06:18;100002.75;;;19.63;65.45
74218;BME280;62579;47.288;18.646;2022-08-03T04:09:02;100001.47;;;19.64;65.83
74218;BME280;62579;47.288;18.646;2022-08-03T04:11:56;100003.66;;;19.73;65.38
74218;BME280;62579;47.288;18.646;2022-08-03T04:14:34;100001.62;;;19.82;65.41
74218;BME280;62579;47.288;18.646;2022-08-03T04:17:03;100012.84;;;19.84;65.43
74218;BME280;62579;47.288;18.646;2022-08-03T04:21:59;100005.78;;;20.05;64.69
74218;BME280;62579;47.288;18.646;2022-08-03T04:24:30;100021.03;;;20.14;64.95
74218;BME280;62579;47.288;18.646;2022-08-03T04:26:58;100013.66;;;20.24;64.72
74218;BME280;62579;47.288;18.646;2022-08-03T04:29:25;100020.41;;;20.38;64.38
74218;BME280;62579;47.288;18.646;2022-08-03T04:31:53;100029.63;;;20.41;64.54
74218;BME280;62579;47.288;18.646;2022-08-03T04:34:19;100023.66;;;20.52;64.36
74218;BME280;62579;47.288;18.646;2022-08-03T04:36:47;100021.81;;;20.54;64.60
74218;BME280;62579;47.288;18.646;2022-08-03T04:39:18;100031.50;;;20.63;64.57
74218;BME280;62579;47.288;18.646;2022-08-03T04:41:45;100027.19;;;20.77;64.04
74218;BME280;62579;47.288;18.646;2022-08-03T04:44:13;100028.03;;;20.87;63.83
74218;BME280;62579;47.288;18.646;2022-08-03T04:46:39;100024.28;;;21.00;63.57
74218;BME280;62579;47.288;18.646;2022-08-03T04:49:06;100029.56;;;21.13;63.20
74218;BME280;62579;47.288;18.646;2022-08-03T04:51:32;100029.56;;;21.13;63.21
74218;BME280;62579;47.288;18.646;2022-08-03T04:54:02;100040.75;;;21.22;63.13
74218;BME280;62579;47.288;18.646;2022-08-03T04:56:28;100042.16;;;21.31;62.77
74218;BME280;62579;47.288;18.646;2022-08-03T04:58:53;100045.09;;;21.33;63.00
74218;BME280;62579;47.288;18.646;2022-08-03T05:01:18;100045.44;;;21.37;63.04
74218;BME280;62579;47.288;18.646;2022-08-03T05:03:45;100045.88;;;21.50;62.52
74218;BME280;62579;47.288;18.646;2022-08-03T05:06:11;100057.53;;;21.66;62.71
74218;BME280;62579;47.288;18.646;2022-08-03T05:08:36;100055.03;;;21.78;62.28
74218;BME280;62579;47.288;18.646;2022-08-03T05:11:02;100056.12;;;21.99;62.42
74218;BME280;62579;47.288;18.646;2022-08-03T05:13:27;100060.25;;;22.25;61.79
74218;BME280;62579;47.288;18.646;2022-08-03T05:15:53;100060.56;;;22.46;61.26
74218;BME280;62579;47.288;18.646;2022-08-03T05:18:18;100061.34;;;22.56;60.96
74218;BME280;62579;47.288;18.646;2022-08-03T05:20:43;100064.72;;;22.55;60.70
74218;BME280;62579;47.288;18.646;2022-08-03T05:23:09;100066.00;;;22.71;60.92
74218;BME280;62579;47.288;18.646;2022-08-03T05:25:34;100070.81;;;22.97;60.73
74218;BME280;62579;47.288;18.646;2022-08-03T05:27:59;100066.09;;;23.17;59.61
74218;BME280;62579;47.288;18.646;2022-08-03T05:30:25;100071.37;;;23.22;59.70
74218;BME280;62579;47.288;18.646;2022-08-03T05:32:50;100065.81;;;23.22;59.62
74218;BME280;62579;47.288;18.646;2022-08-03T05:35:17;100072.88;;;23.33;59.70
74218;BME280;62579;47.288;18.646;2022-08-03T05:37:42;100062.38;;;23.41;59.27
74218;BME280;62579;47.288;18.646;2022-08-03T05:40:08;100064.78;;;23.64;58.72
74218;BME280;62579;47.288;18.646;2022-08-03T05:42:36;100062.72;;;23.64;58.22
74218;BME280;62579;47.288;18.646;2022-08-03T05:45:03;100068.84;;;23.53;58.21
74218;BME280;62579;47.288;18.646;2022-08-03T05:47:37;100072.72;;;23.86;57.95
74218;BME280;62579;47.288;18.646;2022-08-03T05:50:03;100065.97;;;23.99;57.84
74218;BME280;62579;47.288;18.646;2022-08-03T05:52:28;100073.00;;;23.71;57.94
74218;BME280;62579;47.288;18.646;2022-08-03T05:54:53;100072.88;;;23.98;57.37
74218;BME280;62579;47.288;18.646;2022-08-03T05:57:19;100071.13;;;23.93;57.54
74218;BME280;62579;47.288;18.646;2022-08-03T05:59:44;100070.94;;;23.91;58.58
74218;BME280;62579;47.288;18.646;2022-08-03T06:02:09;100074.91;;;24.07;57.50
74218;BME280;62579;47.288;18.646;2022-08-03T06:04:34;100078.78;;;24.31;57.44
74218;BME280;62579;47.288;18.646;2022-08-03T06:07:00;100085.66;;;24.20;56.86
74218;BME280;62579;47.288;18.646;2022-08-03T06:09:25;100084.28;;;24.50;56.71
74218;BME280;62579;47.288;18.646;2022-08-03T06:11:50;100084.59;;;24.35;56.48
74218;BME280;62579;47.288;18.646;2022-08-03T06:14:16;100083.56;;;24.40;56.06
74218;BME280;62579;47.288;18.646;2022-08-03T06:16:41;100083.72;;;24.52;56.45
74218;BME280;62579;47.288;18.646;2022-08-03T06:19:06;100085.59;;;24.59;56.24
74218;BME280;62579;47.288;18.646;2022-08-03T06:21:32;100095.81;;;24.75;55.67
74218;BME280;62579;47.288;18.646;2022-08-03T06:23:57;100088.34;;;24.78;55.59
74218;BME280;62579;47.288;18.646;2022-08-03T06:26:24;100094.94;;;24.92;55.10
74218;BME280;62579;47.288;18.646;2022-08-03T06:28:50;100082.94;;;24.80;55.31
74218;BME280;62579;47.288;18.646;2022-08-03T06:31:16;100091.44;;;24.72;55.10
74218;BME280;62579;47.288;18.646;2022-08-03T06:33:41;100093.03;;;24.94;54.77
74218;BME280;62579;47.288;18.646;2022-08-03T06:36:06;100094.31;;;25.03;54.95
74218;BME280;62579;47.288;18.646;2022-08-03T06:38:32;100098.47;;;25.23;54.23
74218;BME280;62579;47.288;18.646;2022-08-03T06:40:57;100093.81;;;25.16;53.15
74218;BME280;62579;47.288;18.646;2022-08-03T06:43:22;100096.41;;;24.93;53.94
74218;BME280;62579;47.288;18.646;2022-08-03T06:45:48;100098.78;;;25.18;54.26
74218;BME280;62579;47.288;18.646;2022-08-03T06:48:13;100096.25;;;25.31;53.32
74218;BME280;62579;47.288;18.646;2022-08-03T06:50:39;100097.53;;;25.40;53.12
74218;BME280;62579;47.288;18.646;2022-08-03T06:53:05;100101.75;;;25.20;52.98
74218;BME280;62579;47.288;18.646;2022-08-03T06:55:31;100107.03;;;25.16;53.16
74218;BME280;62579;47.288;18.646;2022-08-03T06:57:57;100096.94;;;25.41;52.96
74218;BME280;62579;47.288;18.646;2022-08-03T07:00:23;100101.19;;;25.52;52.48
74218;BME280;62579;47.288;18.646;2022-08-03T07:02:49;100100.44;;;25.51;52.22
74218;BME280;62579;47.288;18.646;2022-08-03T07:05:14;100101.53;;;25.67;52.28
74218;BME280;62579;47.288;18.646;2022-08-03T07:07:40;100092.88;;;25.85;51.83
74218;BME280;62579;47.288;18.646;2022-08-03T07:10:06;100100.88;;;26.00;51.13
74218;BME280;62579;47.288;18.646;2022-08-03T07:12:32;100101.28;;;26.06;51.03
74218;BME280;62579;47.288;18.646;2022-08-03T07:17:46;100097.59;;;26.03;50.37
74218;BME280;62579;47.288;18.646;2022-08-03T07:20:11;100096.34;;;26.37;50.46
74218;BME280;62579;47.288;18.646;2022-08-03T09:48:44;100053.63;;;29.93;39.21
74218;BME280;62579;47.288;18.646;2022-08-03T09:51:10;100049.34;;;29.92;39.56
74218;BME280;62579;47.288;18.646;2022-08-03T09:53:45;100045.34;;;29.68;39.45
74218;BME280;62579;47.288;18.646;2022-08-03T09:56:10;100048.16;;;30.11;38.12
74218;BME280;62579;47.288;18.646;2022-08-03T09:58:45;100048.56;;;29.62;38.09
74218;BME280;62579;47.288;18.646;2022-08-03T10:01:11;100050.50;;;29.87;37.94
74218;BME280;62579;47.288;18.646;2022-08-03T10:03:38;100040.41;;;29.96;36.97
74218;BME280;62579;47.288;18.646;2022-08-03T10:06:18;100030.53;;;30.24;37.23
74218;BME280;62579;47.288;18.646;2022-08-03T10:11:42;100028.06;;;30.61;36.13
74218;BME280;62579;47.288;18.646;2022-08-03T10:14:10;100030.03;;;30.43;36.51
74218;BME280;62579;47.288;18.646;2022-08-03T10:16:42;100026.44;;;30.87;36.14
74218;BME280;62579;47.288;18.646;2022-08-03T10:19:08;100022.72;;;30.52;35.36
74218;BME280;62579;47.288;18.646;2022-08-03T10:21:37;100018.94;;;30.92;35.01
74218;BME280;62579;47.288;18.646;2022-08-03T10:24:04;100020.37;;;30.93;35.01
74218;BME280;62579;47.288;18.646;2022-08-03T10:26:33;100014.75;;;30.93;35.86
74218;BME280;62579;47.288;18.646;2022-08-03T10:29:01;100017.13;;;30.99;35.69
74218;BME280;62579;47.288;18.646;2022-08-03T11:06:21;99982.22;;;30.72;34.66
74218;BME280;62579;47.288;18.646;2022-08-03T11:08:48;99978.41;;;30.50;35.30
74218;BME280;62579;47.288;18.646;2022-08-03T11:14:06;99975.56;;;31.13;33.39
74218;BME280;62579;47.288;18.646;2022-08-03T11:16:44;99971.81;;;31.24;32.23
74218;BME280;62579;47.288;18.646;2022-08-03T11:19:18;99967.16;;;31.46;32.22
74218;BME280;62579;47.288;18.646;2022-08-03T11:37:33;99951.81;;;31.67;32.18
74218;BME280;62579;47.288;18.646;2022-08-03T11:39:59;99950.59;;;31.54;33.15
74218;BME280;62579;47.288;18.646;2022-08-03T11:42:37;99955.03;;;30.61;33.47
74218;BME280;62579;47.288;18.646;2022-08-03T11:45:05;99956.81;;;30.39;33.38
74218;BME280;62579;47.288;18.646;2022-08-03T11:47:36;99946.59;;;30.46;33.65
74218;BME280;62579;47.288;18.646;2022-08-03T11:50:02;99958.19;;;30.54;33.46
74218;BME280;62579;47.288;18.646;2022-08-03T11:52:37;99950.56;;;30.72;33.69
74218;BME280;62579;47.288;18.646;2022-08-03T11:55:07;99952.31;;;30.79;32.82
74218;BME280;62579;47.288;18.646;2022-08-03T11:57:34;99947.31;;;30.77;33.29
74218;BME280;62579;47.288;18.646;2022-08-03T11:59:59;99948.47;;;30.88;33.09
74218;BME280;62579;47.288;18.646;2022-08-03T12:02:25;99944.22;;;31.03;33.49
74218;BME280;62579;47.288;18.646;2022-08-03T12:04:55;99939.19;;;31.17;32.40
74218;BME280;62579;47.288;18.646;2022-08-03T12:07:23;99944.31;;;31.56;31.84
74218;BME280;62579;47.288;18.646;2022-08-03T15:33:53;99793.72;;;35.14;23.10
74218;BME280;62579;47.288;18.646;2022-08-03T15:36:18;99790.38;;;35.23;22.61
74218;BME280;62579;47.288;18.646;2022-08-03T15:38:45;99789.00;;;35.24;22.44
74218;BME280;62579;47.288;18.646;2022-08-03T15:41:13;99793.94;;;35.24;23.22
74218;BME280;62579;47.288;18.646;2022-08-03T15:43:38;99784.66;;;35.19;23.23
74218;BME280;62579;47.288;18.646;2022-08-03T15:46:04;99782.63;;;35.24;22.65
74218;BME280;62579;47.288;18.646;2022-08-03T15:48:30;99786.66;;;35.15;23.01
74218;BME280;62579;47.288;18.646;2022-08-03T15:50:55;99781.94;;;34.95;23.25
74218;BME280;62579;47.288;18.646;2022-08-03T15:53:20;99785.19;;;35.12;22.55
74218;BME280;62579;47.288;18.646;2022-08-03T15:55:46;99786.34;;;34.73;22.49
74218;BME280;62579;47.288;18.646;2022-08-03T15:58:11;99788.00;;;34.28;23.22
74218;BME280;62579;47.288;18.646;2022-08-03T16:00:37;99780.00;;;33.95;23.58
74218;BME280;62579;47.288;18.646;2022-08-03T16:03:03;99790.88;;;33.81;23.96
74218;BME280;62579;47.288;18.646;2022-08-03T16:05:28;99786.53;;;33.54;23.73
74218;BME280;62579;47.288;18.646;2022-08-03T16:07:54;99776.47;;;33.71;24.08
74218;BME280;62579;47.288;18.646;2022-08-03T16:10:20;99778.06;;;34.02;23.78
74218;BME280;62579;47.288;18.646;2022-08-03T16:12:47;99778.66;;;33.98;23.47
74218;BME280;62579;47.288;18.646;2022-08-03T16:15:13;99776.66;;;34.03;23.60
74218;BME280;62579;47.288;18.646;2022-08-03T16:17:39;99771.25;;;33.85;23.92
74218;BME280;62579;47.288;18.646;2022-08-03T16:20:05;99766.88;;;34.06;23.47
74218;BME280;62579;47.288;18.646;2022-08-03T16:22:31;99773.63;;;33.95;23.50
74218;BME280;62579;47.288;18.646;2022-08-03T16:24:57;99770.59;;;33.63;23.75
74218;BME280;62579;47.288;18.646;2022-08-03T16:27:23;99769.44;;;33.48;24.33
74218;BME280;62579;47.288;18.646;2022-08-03T16:29:48;99774.09;;;33.61;24.98
74218;BME280;62579;47.288;18.646;2022-08-03T16:32:14;99766.78;;;33.78;24.90
74218;BME280;62579;47.288;18.646;2022-08-03T16:34:40;99768.03;;;33.97;24.66
74218;BME280;62579;47.288;18.646;2022-08-03T16:37:06;99767.38;;;33.98;25.07
74218;BME280;62579;47.288;18.646;2022-08-03T16:39:31;99762.19;;;34.14;24.62
74218;BME280;62579;47.288;18.646;2022-08-03T16:41:57;99764.78;;;34.06;24.90
74218;BME280;62579;47.288;18.646;2022-08-03T16:44:23;99766.81;;;34.04;25.24
74218;BME280;62579;47.288;18.646;2022-08-03T16:46:48;99758.34;;;34.04;25.23
74218;BME280;62579;47.288;18.646;2022-08-03T16:49:14;99763.56;;;34.13;25.29
74218;BME280;62579;47.288;18.646;2022-08-03T16:51:39;99764.19;;;34.10;25.45
74218;BME280;62579;47.288;18.646;2022-08-03T16:54:05;99757.81;;;34.09;25.42
74218;BME280;62579;47.288;18.646;2022-08-03T16:56:31;99764.50;;;33.96;25.50
74218;BME280;62579;47.288;18.646;2022-08-03T16:58:57;99768.97;;;34.05;25.30
74218;BME280;62579;47.288;18.646;2022-08-03T17:01:23;99772.41;;;34.02;25.41
74218;BME280;62579;47.288;18.646;2022-08-03T17:03:53;99777.72;;;33.90;25.86
74218;BME280;62579;47.288;18.646;2022-08-03T17:06:18;99778.63;;;33.96;25.66
74218;BME280;62579;47.288;18.646;2022-08-03T17:08:44;99778.50;;;33.92;25.78
74218;BME280;62579;47.288;18.646;2022-08-03T17:11:11;99780.34;;;33.83;25.93
74218;BME280;62579;47.288;18.646;2022-08-03T17:13:36;99779.66;;;33.59;26.50
74218;BME280;62579;47.288;18.646;2022-08-03T17:16:03;99784.94;;;33.47;26.96
74218;BME280;62579;47.288;18.646;2022-08-03T17:18:36;99789.59;;;33.39;26.87
74218;BME280;62579;47.288;18.646;2022-08-03T17:21:04;99781.13;;;33.39;26.46
74218;BME280;62579;47.288;18.646;2022-08-03T17:24:23;99787.00;;;33.23;26.92
74218;BME280;62579;47.288;18.646;2022-08-03T17:26:45;99787.72;;;33.02;27.52
74218;BME280;62579;47.288;18.646;2022-08-03T17:29:12;99794.78;;;32.81;28.25
74218;BME280;62579;47.288;18.646;2022-08-03T17:31:40;99789.97;;;32.62;28.69
74218;BME280;62579;47.288;18.646;2022-08-03T18:01:50;99810.19;;;30.41;33.06
74218;BME280;62579;47.288;18.646;2022-08-03T18:04:39;99809.16;;;30.34;33.17
74218;BME280;62579;47.288;18.646;2022-08-03T18:07:08;99810.34;;;30.29;33.07
74218;BME280;62579;47.288;18.646;2022-08-03T18:09:37;99813.62;;;30.23;33.68
74218;BME280;62579;47.288;18.646;2022-08-03T18:12:08;99814.34;;;30.24;34.50
74218;BME280;62579;47.288;18.646;2022-08-03T18:14:59;99815.78;;;30.25;34.56
74218;BME280;62579;47.288;18.646;2022-08-03T18:17:36;99817.78;;;30.22;34.85
74218;BME280;62579;47.288;18.646;2022-08-03T18:20:05;99823.13;;;30.16;34.71
74218;BME280;62579;47.288;18.646;2022-08-03T18:22:30;99825.56;;;30.24;34.87
74218;BME280;62579;47.288;18.646;2022-08-03T18:24:57;99827.66;;;30.23;34.98
74218;BME280;62579;47.288;18.646;2022-08-03T18:27:23;99827.56;;;30.21;35.14
74218;BME280;62579;47.288;18.646;2022-08-03T18:29:49;99834.16;;;30.12;36.09
74218;BME280;62579;47.288;18.646;2022-08-03T18:32:15;99834.37;;;30.01;35.72
74218;BME280;62579;47.288;18.646;2022-08-03T18:34:42;99833.56;;;29.98;35.94
74218;BME280;62579;47.288;18.646;2022-08-03T18:37:09;99844.88;;;29.85;36.06
74218;BME280;62579;47.288;18.646;2022-08-03T18:39:39;99843.22;;;29.80;35.98
74218;BME280;62579;47.288;18.646;2022-08-03T18:42:06;99836.56;;;29.57;35.94
74218;BME280;62579;47.288;18.646;2022-08-03T18:44:35;99845.47;;;29.38;35.78
74218;BME280;62579;47.288;18.646;2022-08-03T18:47:35;99850.19;;;29.20;35.34
74218;BME280;62579;47.288;18.646;2022-08-03T18:55:29;99860.53;;;28.75;37.79
74218;BME280;62579;47.288;18.646;2022-08-03T18:58:07;99860.22;;;28.69;38.25
74218;BME280;62579;47.288;18.646;2022-08-03T19:00:36;99867.66;;;28.78;38.47
74218;BME280;62579;47.288;18.646;2022-08-03T19:03:03;99862.59;;;28.60;38.30
74218;BME280;62579;47.288;18.646;2022-08-03T19:05:42;99870.87;;;28.45;38.41
74218;BME280;62579;47.288;18.646;2022-08-03T19:08:27;99866.84;;;28.48;38.32
74218;BME280;62579;47.288;18.646;2022-08-03T19:10:59;99870.75;;;28.56;38.18
74218;BME280;62579;47.288;18.646;2022-08-03T19:13:29;99872.97;;;28.58;38.40
74218;BME280;62579;47.288;18.646;2022-08-03T19:16:02;99881.66;;;28.50;38.70
74218;BME280;62579;47.288;18.646;2022-08-03T19:18:28;99882.78;;;28.45;38.54
74218;BME280;62579;47.288;18.646;2022-08-03T19:20:55;99879.87;;;28.43;38.38
74218;BME280;62579;47.288;18.646;2022-08-03T19:23:23;99885.16;;;28.37;38.38
74218;BME280;62579;47.288;18.646;2022-08-03T19:25:50;99884.63;;;28.27;38.35
74218;BME280;62579;47.288;18.646;2022-08-03T19:28:16;99882.66;;;28.16;37.19
74218;BME280;62579;47.288;18.646;2022-08-03T19:30:41;99877.63;;;28.01;36.18
74218;BME280;62579;47.288;18.646;2022-08-03T19:33:09;99883.97;;;27.76;35.23
74218;BME280;62579;47.288;18.646;2022-08-03T19:35:38;99874.03;;;27.48;35.25
74218;BME280;62579;47.288;18.646;2022-08-03T19:38:04;99883.16;;;27.37;35.39
74218;BME280;62579;47.288;18.646;2022-08-03T19:40:31;99888.41;;;27.31;35.05
74218;BME280;62579;47.288;18.646;2022-08-03T19:42:59;99891.56;;;27.25;34.41
74218;BME280;62579;47.288;18.646;2022-08-03T19:45:33;99898.66;;;27.15;33.87
74218;BME280;62579;47.288;18.646;2022-08-03T19:48:12;99900.03;;;26.91;33.76
74218;BME280;62579;47.288;18.646;2022-08-03T19:50:38;99902.47;;;26.73;33.43
74218;BME280;62579;47.288;18.646;2022-08-03T19:53:09;99904.16;;;26.66;33.64
74218;BME280;62579;47.288;18.646;2022-08-03T19:55:38;99903.53;;;26.45;33.66
74218;BME280;62579;47.288;18.646;2022-08-03T19:58:06;99906.22;;;26.43;33.41
74218;BME280;62579;47.288;18.646;2022-08-03T20:00:33;99905.81;;;26.25;33.04
74218;BME280;62579;47.288;18.646;2022-08-03T20:05:38;99904.22;;;26.10;32.60
74218;BME280;62579;47.288;18.646;2022-08-03T20:08:05;99903.03;;;26.13;32.53
74218;BME280;62579;47.288;18.646;2022-08-03T20:10:33;99905.28;;;26.05;32.65
74218;BME280;62579;47.288;18.646;2022-08-03T20:12:59;99908.06;;;25.94;32.81
74218;BME280;62579;47.288;18.646;2022-08-03T20:15:25;99906.91;;;25.76;33.09
74218;BME280;62579;47.288;18.646;2022-08-03T20:17:52;99910.78;;;25.71;33.11
74218;BME280;62579;47.288;18.646;2022-08-03T20:20:29;99908.91;;;25.63;33.19
74218;BME280;62579;47.288;18.646;2022-08-03T20:22:56;99902.97;;;25.57;33.06
74218;BME280;62579;47.288;18.646;2022-08-03T20:47:40;99905.94;;;25.29;34.11
74218;BME280;62579;47.288;18.646;2022-08-03T20:50:06;99901.19;;;25.20;34.19
74218;BME280;62579;47.288;18.646;2022-08-03T20:52:33;99898.00;;;25.14;35.22
74218;BME280;62579;47.288;18.646;2022-08-03T20:54:58;99906.69;;;25.08;34.37
74218;BME280;62579;47.288;18.646;2022-08-03T20:57:24;99902.75;;;25.01;34.61
74218;BME280;62579;47.288;18.646;2022-08-03T20:59:49;99906.47;;;24.94;35.29
74218;BME280;62579;47.288;18.646;2022-08-03T21:02:15;99901.31;;;25.00;35.05
74218;BME280;62579;47.288;18.646;2022-08-03T21:04:40;99900.84;;;25.04;35.13
74218;BME280;62579;47.288;18.646;2022-08-03T21:07:17;99897.19;;;25.01;34.02
74218;BME280;62579;47.288;18.646;2022-08-03T21:09:50;99905.53;;;25.01;34.69
74218;BME280;62579;47.288;18.646;2022-08-03T21:12:21;99897.47;;;25.05;34.98
74218;BME280;62579;47.288;18.646;2022-08-03T21:14:54;99906.28;;;25.02;34.60
74218;BME280;62579;47.288;18.646;2022-08-03T21:17:25;99899.72;;;24.97;34.71
74218;BME280;62579;47.288;18.646;2022-08-03T21:19:51;99907.34;;;24.97;34.63
74218;BME280;62579;47.288;18.646;2022-08-03T21:22:20;99911.19;;;24.92;35.00
74218;BME280;62579;47.288;18.646;2022-08-03T21:24:46;99906.47;;;24.94;34.20
74218;BME280;62579;47.288;18.646;2022-08-03T21:27:12;99911.91;;;24.92;33.80
74218;BME280;62579;47.288;18.646;2022-08-03T21:29:38;99907.34;;;24.97;34.88
74218;BME280;62579;47.288;18.646;2022-08-03T21:32:04;99908.47;;;25.03;35.03